Time,TemperatureF,DewpointF,PressureIn,WindDirection,WindDirectionDegrees,WindSpeedMPH,WindSpeedGustMPH,Humidity,HourlyPrecipIn,Conditions,Clouds,dailyrainin,SoftwareType,DateUTC
2013-06-24 00:09:00,55.9,15.0,29.47,North,1,2.0,-999.0,20,-99.99,,,0.00,weatherlink.com 1.10,2013-06-24 06:09:00,
2013-06-24 00:24:00,55.0,17.0,29.48,North,1,0.0,-999.0,22,-99.99,,,0.00,weatherlink.com 1.10,2013-06-24 06:24:00,
2013-06-24 00:39:00,54.4,17.0,29.48,North,1,4.0,-999.0,23,-99.99,,,0.00,weatherlink.com 1.10,2013-06-24 06:39:00,
2013-06-24 00:54:00,54.1,17.0,29.48,North,1,0.0,-999.0,23,-99.99,,,0.00,weatherlink.com 1.10,2013-06-24 06:54:00,
2013-06-24 01:09:00,53.6,16.0,29.48,North,1,2.0,-999.0,23,-99.99,,,0.00,weatherlink.com 1.10,2013-06-24 07:09:00,
2013-06-24 01:24:00,53.1,19.0,29.48,North,1,2.0,-999.0,26,-99.99,,,0.00,weatherlink.com 1.10,2013-06-24 07:24:00,
2013-06-24 01:39:00,52.3,16.0,29.49,North,1,0.0,-999.0,24,-99.99,,,0.00,weatherlink.com 1.10,2013-06-24 07:39:00,
2013-06-24 01:54:00,51.9,18.0,29.49,North,1,5.0,-999.0,26,-99.99,,,0.00,weatherlink.com 1.10,2013-06-24 07:54:00,
2013-06-24 02:09:00,52.8,18.0,29.49,North,1,3.0,-999.0,25,-99.99,,,0.00,weatherlink.com 1.10,2013-06-24 08:09:00,
2013-06-24 02:24:00,52.2,19.0,29.50,North,1,0.0,-999.0,27,-99.99,,,0.00,weatherlink.com 1.10,2013-06-24 08:24:00,
2013-06-24 02:40:00,52.0,17.0,29.49,North,1,4.0,-999.0,25,-99.99,,,0.00,weatherlink.com 1.10,2013-06-24 08:40:00,
2013-06-24 02:54:00,52.2,18.0,29.48,North,1,2.0,-999.0,26,-99.99,,,0.00,weatherlink.com 1.10,2013-06-24 08:54:00,
2013-06-24 03:09:00,52.0,18.0,29.49,North,1,3.0,-999.0,26,-99.99,,,0.00,weatherlink.com 1.10,2013-06-24 09:09:00,
2013-06-24 03:39:00,51.7,19.0,29.49,North,1,3.0,-999.0,27,-99.99,,,0.00,weatherlink.com 1.10,2013-06-24 09:39:00,
2013-06-24 03:55:00,51.6,18.0,29.49,North,1,0.0,-999.0,27,-99.99,,,0.00,weatherlink.com 1.10,2013-06-24 09:55:00,
2013-06-24 04:25:00,50.2,22.0,29.50,North,1,0.0,-999.0,33,-99.99,,,0.00,weatherlink.com 1.10,2013-06-24 10:25:00,
2013-06-24 04:40:00,50.8,20.0,29.51,North,1,0.0,-999.0,30,-99.99,,,0.00,weatherlink.com 1.10,2013-06-24 10:40:00,
2013-06-24 04:54:00,51.4,20.0,29.52,North,1,0.0,-999.0,29,-99.99,,,0.00,weatherlink.com 1.10,2013-06-24 10:54:00,
2013-06-24 05:10:00,52.9,19.0,29.51,North,1,2.0,-999.0,26,-99.99,,,0.00,weatherlink.com 1.10,2013-06-24 11:10:00,
2013-06-24 05:25:00,52.9,19.0,29.52,North,1,0.0,-999.0,26,-99.99,,,0.00,weatherlink.com 1.10,2013-06-24 11:25:00,
2013-06-24 05:40:00,51.4,19.0,29.53,North,1,0.0,-999.0,28,-99.99,,,0.00,weatherlink.com 1.10,2013-06-24 11:40:00,
2013-06-24 06:09:00,51.4,20.0,29.56,North,1,0.0,-999.0,29,-99.99,,,0.00,weatherlink.com 1.10,2013-06-24 12:09:00,
2013-06-24 06:25:00,52.8,17.0,29.55,North,11,3.0,-999.0,24,-99.99,,,0.00,weatherlink.com 1.10,2013-06-24 12:25:00,
2013-06-24 06:40:00,54.1,18.0,29.55,North,1,4.0,-999.0,24,-99.99,,,0.00,weatherlink.com 1.10,2013-06-24 12:40:00,
2013-06-24 06:56:00,54.2,18.0,29.55,North,1,4.0,-999.0,24,-99.99,,,0.00,weatherlink.com 1.10,2013-06-24 12:56:00,
2013-06-24 07:11:00,55.0,19.0,29.55,North,0,5.0,-999.0,24,-99.99,,,0.00,weatherlink.com 1.10,2013-06-24 13:11:00,
2013-06-24 07:25:00,54.5,22.0,29.55,North,1,2.0,-999.0,28,-99.99,,,0.00,weatherlink.com 1.10,2013-06-24 13:25:00,
2013-06-24 07:40:00,55.9,22.0,29.56,North,1,0.0,-999.0,27,-99.99,,,0.00,weatherlink.com 1.10,2013-06-24 13:40:00,
2013-06-24 07:55:00,56.3,29.0,29.56,North,1,0.0,-999.0,35,-99.99,,,0.00,weatherlink.com 1.10,2013-06-24 13:55:00,
2013-06-24 08:11:00,59.2,26.0,29.55,North,1,1.0,-999.0,28,-99.99,,,0.00,weatherlink.com 1.10,2013-06-24 14:11:00,
2013-06-24 08:26:00,61.8,32.0,29.55,NNE,30,3.0,-999.0,33,-99.99,,,0.00,weatherlink.com 1.10,2013-06-24 14:26:00,
2013-06-24 08:41:00,67.6,22.0,29.58,NNE,30,3.0,-999.0,18,-99.99,,,0.00,weatherlink.com 1.10,2013-06-24 14:41:00,
2013-06-24 09:11:00,73.3,24.0,29.53,NE,55,0.0,-999.0,16,-99.99,,,0.00,weatherlink.com 1.10,2013-06-24 15:11:00,
2013-06-24 09:27:00,75.1,23.0,29.53,SSW,206,2.0,-999.0,14,-99.99,,,0.00,weatherlink.com 1.10,2013-06-24 15:27:00,
2013-06-24 09:42:00,76.3,24.0,29.59,SW,220,3.0,-999.0,14,-99.99,,,0.00,weatherlink.com 1.10,2013-06-24 15:42:00,
2013-06-24 09:57:00,76.1,23.0,29.58,SSW,200,6.0,-999.0,14,-99.99,,,0.00,weatherlink.com 1.10,2013-06-24 15:57:00,
2013-06-24 10:12:00,78.3,25.0,29.58,SSW,195,2.0,-999.0,14,-99.99,,,0.00,weatherlink.com 1.10,2013-06-24 16:12:00,
2013-06-24 10:27:00,78.6,20.0,29.57,South,179,15.0,-999.0,11,-99.99,,,0.00,weatherlink.com 1.10,2013-06-24 16:27:00,
2013-06-24 10:41:00,78.8,22.0,29.59,SSW,212,12.0,-999.0,12,-99.99,,,0.00,weatherlink.com 1.10,2013-06-24 16:41:00,
2013-06-24 10:56:00,79.6,18.0,29.59,SSW,202,4.0,-999.0,10,-99.99,,,0.00,weatherlink.com 1.10,2013-06-24 16:56:00,
2013-06-24 11:28:00,81.4,15.0,29.59,WSW,252,5.0,-999.0,8,-99.99,,,0.00,weatherlink.com 1.10,2013-06-24 17:28:00,
2013-06-24 11:43:00,81.8,18.0,29.60,SW,221,13.0,-999.0,9,-99.99,,,0.00,weatherlink.com 1.10,2013-06-24 17:43:00,
2013-06-24 11:58:00,81.8,15.0,29.60,WSW,242,6.0,-999.0,8,-99.99,,,0.00,weatherlink.com 1.10,2013-06-24 17:58:00,
2013-06-24 12:13:00,81.6,15.0,29.60,SW,224,7.0,-999.0,8,-99.99,,,0.00,weatherlink.com 1.10,2013-06-24 18:13:00,
2013-06-24 12:28:00,82.2,12.0,29.60,SSW,203,9.0,-999.0,7,-99.99,,,0.00,weatherlink.com 1.10,2013-06-24 18:28:00,
2013-06-24 12:42:00,81.2,14.0,29.59,SW,217,0.0,-999.0,8,-99.99,,,0.00,weatherlink.com 1.10,2013-06-24 18:42:00,
2013-06-24 12:58:00,82.0,15.0,29.59,SSW,204,5.0,-999.0,8,-99.99,,,0.00,weatherlink.com 1.10,2013-06-24 18:58:00,
2013-06-24 13:13:00,84.1,13.0,29.58,SW,220,3.0,-999.0,7,-99.99,,,0.00,weatherlink.com 1.10,2013-06-24 19:13:00,
2013-06-24 13:29:00,82.8,16.0,29.56,South,189,5.0,-999.0,8,-99.99,,,0.00,weatherlink.com 1.10,2013-06-24 19:29:00,
2013-06-24 13:59:00,85.1,14.0,29.55,WSW,247,6.0,-999.0,7,-99.99,,,0.00,weatherlink.com 1.10,2013-06-24 19:59:00,
2013-06-24 14:13:00,85.3,14.0,29.53,WSW,245,3.0,-999.0,7,-99.99,,,0.00,weatherlink.com 1.10,2013-06-24 20:13:00,
2013-06-24 14:28:00,86.3,12.0,29.54,WNW,282,3.0,-999.0,6,-99.99,,,0.00,weatherlink.com 1.10,2013-06-24 20:28:00,
2013-06-24 14:44:00,85.3,14.0,29.53,West,279,6.0,-999.0,7,-99.99,,,0.00,weatherlink.com 1.10,2013-06-24 20:44:00,
2013-06-24 14:59:00,85.5,11.0,29.53,West,278,9.0,-999.0,6,-99.99,,,0.00,weatherlink.com 1.10,2013-06-24 20:59:00,
2013-06-24 15:14:00,84.9,14.0,29.54,West,264,17.0,-999.0,7,-99.99,,,0.00,weatherlink.com 1.10,2013-06-24 21:14:00,
2013-06-24 15:28:00,85.7,11.0,29.54,WSW,241,3.0,-999.0,6,-99.99,,,0.00,weatherlink.com 1.10,2013-06-24 21:28:00,
2013-06-24 15:59:00,86.5,12.0,29.52,WSW,244,9.0,-999.0,6,-99.99,,,0.00,weatherlink.com 1.10,2013-06-24 21:59:00,
2013-06-24 16:29:00,85.3,14.0,29.52,WSW,253,10.0,-999.0,7,-99.99,,,0.00,weatherlink.com 1.10,2013-06-24 22:29:00,
2013-06-24 16:59:00,85.3,14.0,29.51,SSW,211,6.0,-999.0,7,-99.99,,,0.00,weatherlink.com 1.10,2013-06-24 22:59:00,
2013-06-24 17:15:00,84.7,14.0,29.52,WSW,248,11.0,-999.0,7,-99.99,,,0.00,weatherlink.com 1.10,2013-06-24 23:15:00,
2013-06-24 17:46:00,84.9,14.0,29.51,SSW,193,1.0,-999.0,7,-99.99,,,0.00,weatherlink.com 1.10,2013-06-24 23:46:00,
2013-06-24 17:59:00,84.1,13.0,29.52,SW,228,5.0,-999.0,7,-99.99,,,0.00,weatherlink.com 1.10,2013-06-24 23:59:00,
2013-06-24 18:30:00,83.8,13.0,29.52,WSW,243,5.0,-999.0,7,-99.99,,,0.00,weatherlink.com 1.10,2013-06-25 00:30:00,
2013-06-24 18:44:00,84.1,17.0,29.48,SW,227,8.0,-999.0,8,-99.99,,,0.00,weatherlink.com 1.10,2013-06-25 00:44:00,
2013-06-24 19:00:00,83.8,13.0,29.49,WSW,237,11.0,-999.0,7,-99.99,,,0.00,weatherlink.com 1.10,2013-06-25 01:00:00,
2013-06-24 19:16:00,82.8,16.0,29.49,WSW,255,13.0,-999.0,8,-99.99,,,0.00,weatherlink.com 1.10,2013-06-25 01:16:00,
2013-06-24 19:30:00,82.2,15.0,29.50,West,269,11.0,-999.0,8,-99.99,,,0.00,weatherlink.com 1.10,2013-06-25 01:30:00,
2013-06-24 19:45:00,81.4,15.0,29.48,SW,216,7.0,-999.0,8,-99.99,,,0.00,weatherlink.com 1.10,2013-06-25 01:45:00,
2013-06-24 20:30:00,80.1,14.0,29.49,SW,229,6.0,-999.0,8,-99.99,,,0.00,weatherlink.com 1.10,2013-06-25 02:30:00,
2013-06-24 20:45:00,79.4,13.0,29.43,WSW,252,4.0,-999.0,8,-99.99,,,0.00,weatherlink.com 1.10,2013-06-25 02:45:00,
2013-06-24 21:15:00,76.8,14.0,29.45,WSW,255,0.0,-999.0,9,-99.99,,,0.00,weatherlink.com 1.10,2013-06-25 03:15:00,
2013-06-24 21:30:00,76.5,13.0,29.46,West,266,1.0,-999.0,9,-99.99,,,0.00,weatherlink.com 1.10,2013-06-25 03:30:00,
2013-06-24 22:15:00,74.4,14.0,29.45,West,264,3.0,-999.0,10,-99.99,,,0.00,weatherlink.com 1.10,2013-06-25 04:15:00,
2013-06-24 22:30:00,73.2,15.0,29.47,West,262,0.0,-999.0,11,-99.99,,,0.00,weatherlink.com 1.10,2013-06-25 04:30:00,
2013-06-24 22:45:00,71.1,14.0,29.46,West,262,0.0,-999.0,11,-99.99,,,0.00,weatherlink.com 1.10,2013-06-25 04:45:00,
2013-06-24 23:00:00,70.4,13.0,29.48,West,262,0.0,-999.0,11,-99.99,,,0.00,weatherlink.com 1.10,2013-06-25 05:00:00,
2013-06-24 23:15:00,69.4,14.0,29.49,West,262,0.0,-999.0,12,-99.99,,,0.00,weatherlink.com 1.10,2013-06-25 05:15:00,
2013-06-24 23:30:00,67.9,15.0,29.50,West,262,0.0,-999.0,13,-99.99,,,0.00,weatherlink.com 1.10,2013-06-25 05:30:00,
2013-06-24 23:45:00,66.3,16.0,29.52,West,262,0.0,-999.0,14,-99.99,,,0.00,weatherlink.com 1.10,2013-06-25 05:45:00,